sensor_id;sensor_type;location;lat;lon;timestamp;P1;durP1;ratioP1;P2;durP2;ratioP2
18818;SDS011;9537;45.594;9.294;2023-04-08T00:00:23;19.13;;;12.33;;
18818;SDS011;9537;45.594;9.294;2023-04-08T00:01:24;19.57;;;13.03;;
18818;SDS011;9537;45.594;9.294;2023-04-08T00:02:26;17.30;;;12.97;;
18818;SDS011;9537;45.594;9.294;2023-04-08T00:03:28;19.63;;;13.03;;
18818;SDS011;9537;45.594;9.294;2023-04-08T00:04:30;18.67;;;12.50;;
18818;SDS011;9537;45.594;9.294;2023-04-08T00:05:31;16.00;;;11.63;;
18818;SDS011;9537;45.594;9.294;2023-04-08T00:06:33;16.73;;;11.57;;
18818;SDS011;9537;45.594;9.294;2023-04-08T00:07:34;15.93;;;11.53;;
18818;SDS011;9537;45.594;9.294;2023-04-08T00:08:36;18.53;;;11.93;;
18818;SDS011;9537;45.594;9.294;2023-04-08T00:09:37;19.47;;;11.90;;
18818;SDS011;9537;45.594;9.294;2023-04-08T00:10:39;17.80;;;12.07;;
18818;SDS011;9537;45.594;9.294;2023-04-08T00:11:40;17.40;;;12.37;;
18818;SDS011;9537;45.594;9.294;2023-04-08T00:12:44;18.57;;;12.57;;
18818;SDS011;9537;45.594;9.294;2023-04-08T00:13:46;19.73;;;12.17;;
18818;SDS011;9537;45.594;9.294;2023-04-08T00:14:49;16.13;;;11.63;;
18818;SDS011;9537;45.594;9.294;2023-04-08T00:15:50;16.07;;;11.93;;
18818;SDS011;9537;45.594;9.294;2023-04-08T00:16:51;22.63;;;12.67;;
18818;SDS011;9537;45.594;9.294;2023-04-08T00:17:52;17.43;;;12.63;;
18818;SDS011;9537;45.594;9.294;2023-04-08T00:18:54;19.00;;;12.30;;
18818;SDS011;9537;45.594;9.294;2023-04-08T00:19:56;17.17;;;11.67;;
18818;SDS011;9537;45.594;9.294;2023-04-08T00:20:58;20.87;;;12.70;;
18818;SDS011;9537;45.594;9.294;2023-04-08T00:21:59;17.83;;;11.83;;
18818;SDS011;9537;45.594;9.294;2023-04-08T00:23:01;18.73;;;12.60;;
18818;SDS011;9537;45.594;9.294;2023-04-08T00:24:02;20.20;;;12.90;;
18818;SDS011;9537;45.594;9.294;2023-04-08T00:25:05;21.33;;;13.77;;
18818;SDS011;9537;45.594;9.294;2023-04-08T00:26:08;20.47;;;13.37;;
18818;SDS011;9537;45.594;9.294;2023-04-08T00:27:10;21.67;;;13.27;;
18818;SDS011;9537;45.594;9.294;2023-04-08T00:28:12;19.50;;;12.53;;
18818;SDS011;9537;45.594;9.294;2023-04-08T00:29:14;17.23;;;12.70;;
18818;SDS011;9537;45.594;9.294;2023-04-08T00:30:16;21.90;;;12.53;;
18818;SDS011;9537;45.594;9.294;2023-04-08T00:31:18;19.43;;;12.23;;
18818;SDS011;9537;45.594;9.294;2023-04-08T00:32:19;19.40;;;12.43;;
18818;SDS011;9537;45.594;9.294;2023-04-08T00:33:21;17.97;;;12.00;;
18818;SDS011;9537;45.594;9.294;2023-04-08T00:34:24;21.83;;;13.43;;
18818;SDS011;9537;45.594;9.294;2023-04-08T00:35:26;17.50;;;12.27;;
18818;SDS011;9537;45.594;9.294;2023-04-08T00:36:27;21.10;;;12.50;;
18818;SDS011;9537;45.594;9.294;2023-04-08T00:37:29;20.77;;;12.60;;
18818;SDS011;9537;45.594;9.294;2023-04-08T00:38:30;21.10;;;12.67;;
18818;SDS011;9537;45.594;9.294;2023-04-08T00:39:32;18.30;;;11.93;;
18818;SDS011;9537;45.594;9.294;2023-04-08T00:40:33;18.40;;;12.77;;
18818;SDS011;9537;45.594;9.294;2023-04-08T00:41:35;19.20;;;13.00;;
18818;SDS011;9537;45.594;9.294;2023-04-08T00:42:36;19.30;;;13.73;;
18818;SDS011;9537;45.594;9.294;2023-04-08T00:43:40;19.37;;;12.50;;
18818;SDS011;9537;45.594;9.294;2023-04-08T00:44:42;21.57;;;13.67;;
18818;SDS011;9537;45.594;9.294;2023-04-08T00:45:43;17.73;;;12.80;;
18818;SDS011;9537;45.594;9.294;2023-04-08T00:46:45;25.13;;;14.17;;
18818;SDS011;9537;45.594;9.294;2023-04-08T00:47:46;18.03;;;12.13;;
18818;SDS011;9537;45.594;9.294;2023-04-08T00:48:51;19.67;;;12.17;;
18818;SDS011;9537;45.594;9.294;2023-04-08T00:49:53;18.97;;;13.60;;
18818;SDS011;9537;45.594;9.294;2023-04-08T00:50:56;20.37;;;13.50;;
18818;SDS011;9537;45.594;9.294;2023-04-08T00:51:57;21.90;;;13.57;;
18818;SDS011;9537;45.594;9.294;2023-04-08T00:52:59;19.53;;;13.03;;
18818;SDS011;9537;45.594;9.294;2023-04-08T00:54:00;22.27;;;13.07;;
18818;SDS011;9537;45.594;9.294;2023-04-08T00:55:04;23.47;;;13.83;;
18818;SDS011;9537;45.594;9.294;2023-04-08T00:56:05;21.03;;;14.00;;
18818;SDS011;9537;45.594;9.294;2023-04-08T00:57:07;19.67;;;13.43;;
18818;SDS011;9537;45.594;9.294;2023-04-08T00:58:09;21.67;;;13.73;;
18818;SDS011;9537;45.594;9.294;2023-04-08T00:59:12;20.87;;;13.17;;
18818;SDS011;9537;45.594;9.294;2023-04-08T01:00:14;18.73;;;13.53;;
18818;SDS011;9537;45.594;9.294;2023-04-08T01:01:17;19.77;;;13.87;;
18818;SDS011;9537;45.594;9.294;2023-04-08T01:02:34;19.10;;;12.80;;
18818;SDS011;9537;45.594;9.294;2023-04-08T01:03:45;20.17;;;13.20;;
18818;SDS011;9537;45.594;9.294;2023-04-08T01:04:55;18.03;;;12.77;;
18818;SDS011;9537;45.594;9.294;2023-04-08T01:06:04;19.93;;;13.10;;
18818;SDS011;9537;45.594;9.294;2023-04-08T01:07:12;22.90;;;12.97;;
18818;SDS011;9537;45.594;9.294;2023-04-08T01:08:18;18.73;;;13.17;;
18818;SDS011;9537;45.594;9.294;2023-04-08T01:09:22;17.10;;;12.20;;
18818;SDS011;9537;45.594;9.294;2023-04-08T01:10:28;21.57;;;13.27;;
18818;SDS011;9537;45.594;9.294;2023-04-08T01:11:31;17.53;;;12.07;;
18818;SDS011;9537;45.594;9.294;2023-04-08T01:12:36;16.60;;;12.07;;
18818;SDS011;9537;45.594;9.294;2023-04-08T01:13:41;19.67;;;12.40;;
18818;SDS011;9537;45.594;9.294;2023-04-08T01:14:47;18.00;;;12.30;;
18818;SDS011;9537;45.594;9.294;2023-04-08T01:15:52;20.90;;;13.17;;
18818;SDS011;9537;45.594;9.294;2023-04-08T01:16:55;19.33;;;13.17;;
18818;SDS011;9537;45.594;9.294;2023-04-08T01:17:59;16.90;;;11.60;;
18818;SDS011;9537;45.594;9.294;2023-04-08T01:19:07;19.87;;;13.10;;
18818;SDS011;9537;45.594;9.294;2023-04-08T01:20:10;20.17;;;13.40;;
18818;SDS011;9537;45.594;9.294;2023-04-08T01:21:13;19.07;;;13.33;;
18818;SDS011;9537;45.594;9.294;2023-04-08T01:22:18;20.83;;;12.67;;
18818;SDS011;9537;45.594;9.294;2023-04-08T01:23:29;16.03;;;12.23;;
18818;SDS011;9537;45.594;9.294;2023-04-08T01:24:42;16.53;;;12.33;;
18818;SDS011;9537;45.594;9.294;2023-04-08T01:25:47;17.83;;;12.13;;
18818;SDS011;9537;45.594;9.294;2023-04-08T01:26:49;19.20;;;12.60;;
18818;SDS011;9537;45.594;9.294;2023-04-08T01:27:52;20.63;;;13.07;;
18818;SDS011;9537;45.594;9.294;2023-04-08T01:29:00;16.70;;;12.30;;
18818;SDS011;9537;45.594;9.294;2023-04-08T01:30:05;18.33;;;12.73;;
18818;SDS011;9537;45.594;9.294;2023-04-08T01:31:07;21.63;;;12.50;;
18818;SDS011;9537;45.594;9.294;2023-04-08T01:32:09;16.17;;;12.07;;
18818;SDS011;9537;45.594;9.294;2023-04-08T01:33:12;18.50;;;13.23;;
18818;SDS011;9537;45.594;9.294;2023-04-08T01:34:16;19.57;;;12.67;;
18818;SDS011;9537;45.594;9.294;2023-04-08T01:35:19;20.00;;;12.70;;
18818;SDS011;9537;45.594;9.294;2023-04-08T01:36:21;20.47;;;14.23;;
18818;SDS011;9537;45.594;9.294;2023-04-08T01:37:25;19.40;;;12.47;;
18818;SDS011;9537;45.594;9.294;2023-04-08T01:38:29;21.10;;;13.30;;
18818;SDS011;9537;45.594;9.294;2023-04-08T01:39:32;20.37;;;12.90;;
18818;SDS011;9537;45.594;9.294;2023-04-08T01:40:36;18.57;;;12.77;;
18818;SDS011;9537;45.594;9.294;2023-04-08T01:41:40;20.17;;;13.13;;
18818;SDS011;9537;45.594;9.294;2023-04-08T01:42:42;15.77;;;11.87;;
18818;SDS011;9537;45.594;9.294;2023-04-08T01:43:45;19.73;;;12.47;;
18818;SDS011;9537;45.594;9.294;2023-04-08T01:44:49;18.43;;;13.00;;
18818;SDS011;9537;45.594;9.294;2023-04-08T01:45:50;25.10;;;14.07;;
18818;SDS011;9537;45.594;9.294;2023-04-08T01:46:57;18.60;;;12.33;;
18818;SDS011;9537;45.594;9.294;2023-04-08T01:47:59;18.50;;;12.90;;
18818;SDS011;9537;45.594;9.294;2023-04-08T01:49:02;22.73;;;13.00;;
18818;SDS011;9537;45.594;9.294;2023-04-08T01:50:06;19.90;;;13.00;;
18818;SDS011;9537;45.594;9.294;2023-04-08T01:51:09;19.33;;;13.23;;
18818;SDS011;9537;45.594;9.294;2023-04-08T01:52:11;17.87;;;12.60;;
18818;SDS011;9537;45.594;9.294;2023-04-08T01:53:16;16.90;;;12.50;;
18818;SDS011;9537;45.594;9.294;2023-04-08T01:54:18;19.80;;;13.73;;
18818;SDS011;9537;45.594;9.294;2023-04-08T01:55:20;19.53;;;13.70;;
18818;SDS011;9537;45.594;9.294;2023-04-08T01:56:22;16.03;;;11.60;;
18818;SDS011;9537;45.594;9.294;2023-04-08T01:57:30;19.13;;;12.20;;
18818;SDS011;9537;45.594;9.294;2023-04-08T01:58:36;18.77;;;12.20;;
18818;SDS011;9537;45.594;9.294;2023-04-08T01:59:40;17.23;;;12.50;;
18818;SDS011;9537;45.594;9.294;2023-04-08T02:00:43;17.47;;;11.90;;
18818;SDS011;9537;45.594;9.294;2023-04-08T02:01:44;19.47;;;13.00;;
18818;SDS011;9537;45.594;9.294;2023-04-08T02:02:48;18.47;;;12.47;;
18818;SDS011;9537;45.594;9.294;2023-04-08T02:03:51;19.17;;;12.87;;
18818;SDS011;9537;45.594;9.294;2023-04-08T02:04:56;18.33;;;12.43;;
18818;SDS011;9537;45.594;9.294;2023-04-08T02:05:58;17.17;;;12.03;;
18818;SDS011;9537;45.594;9.294;2023-04-08T02:07:00;17.67;;;12.27;;
18818;SDS011;9537;45.594;9.294;2023-04-08T02:08:02;19.93;;;12.80;;
18818;SDS011;9537;45.594;9.294;2023-04-08T02:09:03;18.13;;;12.10;;
18818;SDS011;9537;45.594;9.294;2023-04-08T02:10:07;18.73;;;12.57;;
18818;SDS011;9537;45.594;9.294;2023-04-08T02:11:08;19.00;;;13.17;;
18818;SDS011;9537;45.594;9.294;2023-04-08T02:12:10;20.17;;;13.27;;
18818;SDS011;9537;45.594;9.294;2023-04-08T02:13:13;20.03;;;13.17;;
18818;SDS011;9537;45.594;9.294;2023-04-08T02:14:15;19.33;;;12.93;;
18818;SDS011;9537;45.594;9.294;2023-04-08T02:15:16;21.13;;;13.17;;
18818;SDS011;9537;45.594;9.294;2023-04-08T02:16:21;17.73;;;12.43;;
18818;SDS011;9537;45.594;9.294;2023-04-08T02:17:24;19.00;;;12.87;;
18818;SDS011;9537;45.594;9.294;2023-04-08T02:18:34;19.33;;;12.33;;
18818;SDS011;9537;45.594;9.294;2023-04-08T02:19:40;19.67;;;12.80;;
18818;SDS011;9537;45.594;9.294;2023-04-08T02:20:49;15.97;;;11.90;;
18818;SDS011;9537;45.594;9.294;2023-04-08T02:21:56;18.20;;;12.10;;
18818;SDS011;9537;45.594;9.294;2023-04-08T02:23:04;19.47;;;12.80;;
18818;SDS011;9537;45.594;9.294;2023-04-08T02:24:07;16.40;;;12.43;;
18818;SDS011;9537;45.594;9.294;2023-04-08T02:25:14;18.83;;;12.70;;
18818;SDS011;9537;45.594;9.294;2023-04-08T02:26:16;21.00;;;12.80;;
18818;SDS011;9537;45.594;9.294;2023-04-08T02:27:19;18.23;;;12.37;;
18818;SDS011;9537;45.594;9.294;2023-04-08T02:28:22;18.53;;;12.73;;
18818;SDS011;9537;45.594;9.294;2023-04-08T02:29:27;16.67;;;12.30;;
18818;SDS011;9537;45.594;9.294;2023-04-08T02:30:30;16.90;;;13.03;;
18818;SDS011;9537;45.594;9.294;2023-04-08T02:31:34;18.00;;;12.60;;
18818;SDS011;9537;45.594;9.294;2023-04-08T02:32:35;17.73;;;12.17;;
18818;SDS011;9537;45.594;9.294;2023-04-08T02:33:38;16.80;;;12.13;;
18818;SDS011;9537;45.594;9.294;2023-04-08T02:34:40;16.90;;;11.73;;
18818;SDS011;9537;45.594;9.294;2023-04-08T02:35:43;16.57;;;12.10;;
18818;SDS011;9537;45.594;9.294;2023-04-08T02:36:45;16.60;;;11.67;;
18818;SDS011;9537;45.594;9.294;2023-04-08T02:37:47;19.97;;;11.83;;
18818;SDS011;9537;45.594;9.294;2023-04-08T02:38:48;17.43;;;12.33;;
18818;SDS011;9537;45.594;9.294;2023-04-08T02:39:50;18.60;;;12.37;;
18818;SDS011;9537;45.594;9.294;2023-04-08T02:40:51;17.13;;;11.87;;
18818;SDS011;9537;45.594;9.294;2023-04-08T02:41:53;16.87;;;11.23;;
18818;SDS011;9537;45.594;9.294;2023-04-08T02:42:54;18.37;;;12.10;;
18818;SDS011;9537;45.594;9.294;2023-04-08T02:43:58;18.93;;;12.53;;
18818;SDS011;9537;45.594;9.294;2023-04-08T02:44:58;17.10;;;11.80;;
18818;SDS011;9537;45.594;9.294;2023-04-08T02:46:00;16.40;;;11.30;;
18818;SDS011;9537;45.594;9.294;2023-04-08T02:47:03;20.47;;;12.40;;
18818;SDS011;9537;45.594;9.294;2023-04-08T02:48:05;18.37;;;12.30;;
18818;SDS011;9537;45.594;9.294;2023-04-08T02:49:06;18.73;;;12.07;;
18818;SDS011;9537;45.594;9.294;2023-04-08T02:50:08;17.23;;;11.93;;
18818;SDS011;9537;45.594;9.294;2023-04-08T02:51:10;18.13;;;12.27;;
18818;SDS011;9537;45.594;9.294;2023-04-08T02:52:12;16.70;;;11.70;;
18818;SDS011;9537;45.594;9.294;2023-04-08T02:53:13;17.03;;;12.67;;
18818;SDS011;9537;45.594;9.294;2023-04-08T02:54:15;18.03;;;12.33;;
18818;SDS011;9537;45.594;9.294;2023-04-08T02:55:16;14.40;;;11.50;;
18818;SDS011;9537;45.594;9.294;2023-04-08T02:56:18;18.10;;;12.43;;
18818;SDS011;9537;45.594;9.294;2023-04-08T02:57:19;17.83;;;12.03;;
18818;SDS011;9537;45.594;9.294;2023-04-08T02:58:21;17.60;;;11.73;;
18818;SDS011;9537;45.594;9.294;2023-04-08T02:59:23;16.97;;;12.10;;
18818;SDS011;9537;45.594;9.294;2023-04-08T03:00:25;17.97;;;12.43;;
18818;SDS011;9537;45.594;9.294;2023-04-08T03:01:26;18.57;;;11.93;;
18818;SDS011;9537;45.594;9.294;2023-04-08T03:02:28;16.77;;;11.53;;
18818;SDS011;9537;45.594;9.294;2023-04-08T03:03:30;18.97;;;13.17;;
18818;SDS011;9537;45.594;9.294;2023-04-08T03:04:32;18.83;;;12.30;;
18818;SDS011;9537;45.594;9.294;2023-04-08T03:05:32;16.70;;;12.03;;
18818;SDS011;9537;45.594;9.294;2023-04-08T03:06:34;21.50;;;12.10;;
18818;SDS011;9537;45.594;9.294;2023-04-08T03:07:35;15.80;;;11.77;;
18818;SDS011;9537;45.594;9.294;2023-04-08T03:08:38;19.60;;;12.03;;
18818;SDS011;9537;45.594;9.294;2023-04-08T03:09:39;18.13;;;12.27;;
18818;SDS011;9537;45.594;9.294;2023-04-08T03:10:41;18.67;;;12.43;;
18818;SDS011;9537;45.594;9.294;2023-04-08T03:11:42;15.23;;;11.80;;
18818;SDS011;9537;45.594;9.294;2023-04-08T03:12:44;18.77;;;12.83;;
18818;SDS011;9537;45.594;9.294;2023-04-08T03:13:45;19.87;;;13.00;;
18818;SDS011;9537;45.594;9.294;2023-04-08T03:14:49;18.73;;;12.67;;
18818;SDS011;9537;45.594;9.294;2023-04-08T03:15:50;18.20;;;12.27;;
18818;SDS011;9537;45.594;9.294;2023-04-08T03:16:52;19.00;;;12.73;;
18818;SDS011;9537;45.594;9.294;2023-04-08T03:17:53;16.63;;;12.27;;
18818;SDS011;9537;45.594;9.294;2023-04-08T03:18:54;16.37;;;12.13;;
18818;SDS011;9537;45.594;9.294;2023-04-08T03:19:55;17.23;;;11.10;;
18818;SDS011;9537;45.594;9.294;2023-04-08T03:20:57;16.50;;;11.33;;
18818;SDS011;9537;45.594;9.294;2023-04-08T03:21:58;18.00;;;12.00;;
18818;SDS011;9537;45.594;9.294;2023-04-08T03:23:00;18.90;;;11.57;;
18818;SDS011;9537;45.594;9.294;2023-04-08T03:24:01;20.23;;;11.87;;
18818;SDS011;9537;45.594;9.294;2023-04-08T03:25:04;17.43;;;11.83;;
18818;SDS011;9537;45.594;9.294;2023-04-08T03:26:05;15.47;;;11.50;;
18818;SDS011;9537;45.594;9.294;2023-04-08T03:27:07;15.60;;;11.90;;
18818;SDS011;9537;45.594;9.294;2023-04-08T03:28:08;18.40;;;12.00;;
18818;SDS011;9537;45.594;9.294;2023-04-08T03:29:10;20.13;;;11.53;;
18818;SDS011;9537;45.594;9.294;2023-04-08T03:30:13;16.17;;;11.40;;
18818;SDS011;9537;45.594;9.294;2023-04-08T03:31:15;17.73;;;10.77;;
18818;SDS011;9537;45.594;9.294;2023-04-08T03:32:16;16.43;;;11.60;;
18818;SDS011;9537;45.594;9.294;2023-04-08T03:33:18;16.30;;;12.63;;
18818;SDS011;9537;45.594;9.294;2023-04-08T03:34:19;14.93;;;10.73;;
18818;SDS011;9537;45.594;9.294;2023-04-08T03:35:21;16.80;;;11.53;;
18818;SDS011;9537;45.594;9.294;2023-04-08T03:36:22;15.10;;;11.30;;
18818;SDS011;9537;45.594;9.294;2023-04-08T03:37:24;17.53;;;11.27;;
18818;SDS011;9537;45.594;9.294;2023-04-08T03:38:24;15.97;;;11.47;;
18818;SDS011;9537;45.594;9.294;2023-04-08T03:39:26;16.03;;;10.63;;
18818;SDS011;9537;45.594;9.294;2023-04-08T03:40:27;17.00;;;10.27;;
18818;SDS011;9537;45.594;9.294;2023-04-08T03:41:29;17.53;;;10.97;;
18818;SDS011;9537;45.594;9.294;2023-04-08T03:42:30;15.80;;;10.90;;
18818;SDS011;9537;45.594;9.294;2023-04-08T03:43:33;18.33;;;11.70;;
18818;SDS011;9537;45.594;9.294;2023-04-08T03:44:34;17.87;;;10.73;;
18818;SDS011;9537;45.594;9.294;2023-04-08T03:45:37;14.97;;;10.37;;
18818;SDS011;9537;45.594;9.294;2023-04-08T03:46:38;17.70;;;11.07;;
18818;SDS011;9537;45.594;9.294;2023-04-08T03:47:40;18.00;;;11.67;;
18818;SDS011;9537;45.594;9.294;2023-04-08T03:48:41;15.17;;;10.40;;
18818;SDS011;9537;45.594;9.294;2023-04-08T03:49:43;16.77;;;11.90;;
18818;SDS011;9537;45.594;9.294;2023-04-08T03:50:44;14.47;;;11.00;;
18818;SDS011;9537;45.594;9.294;2023-04-08T03:51:46;18.03;;;11.50;;
18818;SDS011;9537;45.594;9.294;2023-04-08T03:52:46;17.90;;;12.40;;
18818;SDS011;9537;45.594;9.294;2023-04-08T03:53:48;18.43;;;11.60;;
18818;SDS011;9537;45.594;9.294;2023-04-08T03:54:49;15.73;;;10.70;;
18818;SDS011;9537;45.594;9.294;2023-04-08T03:55:52;17.33;;;11.27;;
18818;SDS011;9537;45.594;9.294;2023-04-08T03:56:53;16.53;;;11.17;;
18818;SDS011;9537;45.594;9.294;2023-04-08T03:57:56;16.83;;;11.90;;
18818;SDS011;9537;45.594;9.294;2023-04-08T03:58:57;14.53;;;10.93;;
18818;SDS011;9537;45.594;9.294;2023-04-08T03:59:59;16.27;;;10.27;;
18818;SDS011;9537;45.594;9.294;2023-04-08T04:01:01;14.63;;;10.77;;
18818;SDS011;9537;45.594;9.294;2023-04-08T04:02:04;17.33;;;11.27;;
18818;SDS011;9537;45.594;9.294;2023-04-08T04:03:05;15.57;;;11.13;;
18818;SDS011;9537;45.594;9.294;2023-04-08T04:04:08;18.50;;;11.97;;
18818;SDS011;9537;45.594;9.294;2023-04-08T04:05:09;18.83;;;11.93;;
18818;SDS011;9537;45.594;9.294;2023-04-08T04:06:11;16.13;;;11.27;;
18818;SDS011;9537;45.594;9.294;2023-04-08T04:07:12;15.37;;;10.63;;
18818;SDS011;9537;45.594;9.294;2023-04-08T04:08:14;19.57;;;11.40;;
18818;SDS011;9537;45.594;9.294;2023-04-08T04:09:15;14.37;;;10.47;;
18818;SDS011;9537;45.594;9.294;2023-04-08T04:10:17;19.03;;;11.17;;
18818;SDS011;9537;45.594;9.294;2023-04-08T04:11:18;17.60;;;10.87;;
18818;SDS011;9537;45.594;9.294;2023-04-08T04:12:20;14.73;;;10.80;;
18818;SDS011;9537;45.594;9.294;2023-04-08T04:13:21;16.63;;;11.30;;
18818;SDS011;9537;45.594;9.294;2023-04-08T04:14:23;16.50;;;11.13;;
18818;SDS011;9537;45.594;9.294;2023-04-08T04:15:24;19.80;;;12.17;;
18818;SDS011;9537;45.594;9.294;2023-04-08T04:16:28;18.17;;;11.93;;
18818;SDS011;9537;45.594;9.294;2023-04-08T04:17:29;16.33;;;10.97;;
18818;SDS011;9537;45.594;9.294;2023-04-08T04:18:31;20.13;;;11.47;;
18818;SDS011;9537;45.594;9.294;2023-04-08T04:19:32;17.70;;;11.23;;
18818;SDS011;9537;45.594;9.294;2023-04-08T04:20:33;21.60;;;11.47;;
18818;SDS011;9537;45.594;9.294;2023-04-08T04:21:35;26.00;;;11.53;;
18818;SDS011;9537;45.594;9.294;2023-04-08T04:22:37;18.53;;;10.73;;
18818;SDS011;9537;45.594;9.294;2023-04-08T04:23:38;18.03;;;10.33;;
18818;SDS011;9537;45.594;9.294;2023-04-08T04:24:40;22.23;;;10.83;;
18818;SDS011;9537;45.594;9.294;2023-04-08T04:25:46;16.43;;;10.53;;
18818;SDS011;9537;45.594;9.294;2023-04-08T04:26:48;25.63;;;11.00;;
18818;SDS011;9537;45.594;9.294;2023-04-08T04:27:49;25.17;;;10.53;;
18818;SDS011;9537;45.594;9.294;2023-04-08T04:28:51;26.97;;;11.60;;
18818;SDS011;9537;45.594;9.294;2023-04-08T04:29:52;23.30;;;12.13;;
18818;SDS011;9537;45.594;9.294;2023-04-08T04:30:54;24.47;;;11.40;;
18818;SDS011;9537;45.594;9.294;2023-04-08T04:31:56;20.00;;;10.90;;
18818;SDS011;9537;45.594;9.294;2023-04-08T04:32:58;16.80;;;11.00;;
18818;SDS011;9537;45.594;9.294;2023-04-08T04:33:59;16.73;;;10.70;;
18818;SDS011;9537;45.594;9.294;2023-04-08T04:35:01;16.77;;;11.00;;
18818;SDS011;9537;45.594;9.294;2023-04-08T04:36:02;18.57;;;11.70;;
18818;SDS011;9537;45.594;9.294;2023-04-08T04:37:04;18.17;;;10.20;;
18818;SDS011;9537;45.594;9.294;2023-04-08T04:38:05;16.37;;;10.90;;
18818;SDS011;9537;45.594;9.294;2023-04-08T04:39:10;14.90;;;10.70;;
18818;SDS011;9537;45.594;9.294;2023-04-08T04:40:11;13.53;;;9.77;;
18818;SDS011;9537;45.594;9.294;2023-04-08T04:41:13;12.83;;;9.63;;
18818;SDS011;9537;45.594;9.294;2023-04-08T04:42:14;14.77;;;10.30;;
18818;SDS011;9537;45.594;9.294;2023-04-08T04:43:17;15.10;;;10.07;;
18818;SDS011;9537;45.594;9.294;2023-04-08T04:44:17;18.73;;;10.67;;
18818;SDS011;9537;45.594;9.294;2023-04-08T04:45:20;15.83;;;10.40;;
18818;SDS011;9537;45.594;9.294;2023-04-08T04:46:21;14.77;;;10.07;;
18818;SDS011;9537;45.594;9.294;2023-04-08T04:47:24;16.63;;;10.27;;
18818;SDS011;9537;45.594;9.294;2023-04-08T04:48:25;17.43;;;10.57;;
18818;SDS011;9537;45.594;9.294;2023-04-08T04:49:27;17.00;;;10.30;;
18818;SDS011;9537;45.594;9.294;2023-04-08T04:50:28;15.90;;;10.77;;
18818;SDS011;9537;45.594;9.294;2023-04-08T04:51:30;17.27;;;10.43;;
18818;SDS011;9537;45.594;9.294;2023-04-08T04:52:32;14.97;;;10.43;;
18818;SDS011;9537;45.594;9.294;2023-04-08T04:53:36;22.00;;;11.30;;
18818;SDS011;9537;45.594;9.294;2023-04-08T04:54:37;18.07;;;10.87;;
18818;SDS011;9537;45.594;9.294;2023-04-08T04:55:39;22.33;;;11.17;;
18818;SDS011;9537;45.594;9.294;2023-04-08T04:56:40;17.80;;;10.47;;
18818;SDS011;9537;45.594;9.294;2023-04-08T04:57:42;15.30;;;10.53;;
18818;SDS011;9537;45.594;9.294;2023-04-08T04:58:43;15.57;;;10.07;;
18818;SDS011;9537;45.594;9.294;2023-04-08T04:59:45;15.40;;;10.43;;
18818;SDS011;9537;45.594;9.294;2023-04-08T05:00:46;13.70;;;9.70;;
18818;SDS011;9537;45.594;9.294;2023-04-08T05:01:48;13.47;;;10.67;;
18818;SDS011;9537;45.594;9.294;2023-04-08T05:02:51;14.13;;;9.27;;
18818;SDS011;9537;45.594;9.294;2023-04-08T05:03:53;15.67;;;10.40;;
18818;SDS011;9537;45.594;9.294;2023-04-08T05:04:54;14.97;;;10.17;;
18818;SDS011;9537;45.594;9.294;2023-04-08T05:05:55;15.50;;;10.17;;
18818;SDS011;9537;45.594;9.294;2023-04-08T05:06:57;13.93;;;9.63;;
18818;SDS011;9537;45.594;9.294;2023-04-08T05:07:59;13.77;;;10.23;;
18818;SDS011;9537;45.594;9.294;2023-04-08T05:09:00;14.83;;;10.50;;
18818;SDS011;9537;45.594;9.294;2023-04-08T05:10:02;14.50;;;10.63;;
18818;SDS011;9537;45.594;9.294;2023-04-08T05:11:07;16.10;;;10.33;;
18818;SDS011;9537;45.594;9.294;2023-04-08T05:12:10;14.67;;;9.77;;
18818;SDS011;9537;45.594;9.294;2023-04-08T05:13:11;14.40;;;9.67;;
18818;SDS011;9537;45.594;9.294;2023-04-08T05:14:14;14.97;;;10.07;;
18818;SDS011;9537;45.594;9.294;2023-04-08T05:15:14;13.67;;;9.37;;
18818;SDS011;9537;45.594;9.294;2023-04-08T05:16:16;18.47;;;10.07;;
18818;SDS011;9537;45.594;9.294;2023-04-08T05:17:17;14.43;;;10.30;;
18818;SDS011;9537;45.594;9.294;2023-04-08T05:18:21;15.40;;;10.20;;
18818;SDS011;9537;45.594;9.294;2023-04-08T05:19:22;15.03;;;9.97;;
18818;SDS011;9537;45.594;9.294;2023-04-08T05:20:24;15.13;;;10.97;;
18818;SDS011;9537;45.594;9.294;2023-04-08T05:21:25;15.07;;;10.33;;
18818;SDS011;9537;45.594;9.294;2023-04-08T05:22:27;15.30;;;10.60;;
18818;SDS011;9537;45.594;9.294;2023-04-08T05:23:28;15.13;;;10.30;;
18818;SDS011;9537;45.594;9.294;2023-04-08T05:24:30;13.13;;;10.47;;
18818;SDS011;9537;45.594;9.294;2023-04-08T05:25:31;15.87;;;10.30;;
18818;SDS011;9537;45.594;9.294;2023-04-08T05:26:33;12.70;;;9.63;;
18818;SDS011;9537;45.594;9.294;2023-04-08T05:27:34;15.40;;;10.60;;
18818;SDS011;9537;45.594;9.294;2023-04-08T05:28:36;17.40;;;10.27;;
18818;SDS011;9537;45.594;9.294;2023-04-08T05:29:37;20.13;;;10.47;;
18818;SDS011;9537;45.594;9.294;2023-04-08T05:30:39;16.77;;;10.90;;
18818;SDS011;9537;45.594;9.294;2023-04-08T05:31:41;15.00;;;9.57;;
18818;SDS011;9537;45.594;9.294;2023-04-08T05:32:43;14.73;;;10.73;;
18818;SDS011;9537;45.594;9.294;2023-04-08T05:33:45;14.27;;;9.63;;
18818;SDS011;9537;45.594;9.294;2023-04-08T05:34:47;14.03;;;9.87;;
18818;SDS011;9537;45.594;9.294;2023-04-08T05:35:48;13.97;;;9.57;;
18818;SDS011;9537;45.594;9.294;2023-04-08T05:36:50;15.37;;;10.80;;
18818;SDS011;9537;45.594;9.294;2023-04-08T05:37:51;18.80;;;11.47;;
18818;SDS011;9537;45.594;9.294;2023-04-08T05:38:53;16.07;;;10.53;;
18818;SDS011;9537;45.594;9.294;2023-04-08T05:39:55;15.13;;;10.60;;
18818;SDS011;9537;45.594;9.294;2023-04-08T05:40:57;15.03;;;10.77;;
18818;SDS011;9537;45.594;9.294;2023-04-08T05:41:57;15.83;;;9.97;;
18818;SDS011;9537;45.594;9.294;2023-04-08T05:43:00;16.60;;;11.17;;
18818;SDS011;9537;45.594;9.294;2023-04-08T05:44:01;17.23;;;10.43;;
18818;SDS011;9537;45.594;9.294;2023-04-08T05:45:03;19.40;;;11.07;;
18818;SDS011;9537;45.594;9.294;2023-04-08T05:46:05;15.17;;;10.87;;
18818;SDS011;9537;45.594;9.294;2023-04-08T05:47:08;19.00;;;11.13;;
18818;SDS011;9537;45.594;9.294;2023-04-08T05:48:09;14.00;;;10.53;;
18818;SDS011;9537;45.594;9.294;2023-04-08T05:49:12;16.90;;;11.47;;
18818;SDS011;9537;45.594;9.294;2023-04-08T05:50:13;20.03;;;11.23;;
18818;SDS011;9537;45.594;9.294;2023-04-08T05:51:15;18.47;;;11.10;;
18818;SDS011;9537;45.594;9.294;2023-04-08T05:52:17;17.17;;;10.57;;
18818;SDS011;9537;45.594;9.294;2023-04-08T05:53:19;17.37;;;9.80;;
18818;SDS011;9537;45.594;9.294;2023-04-08T05:54:20;14.13;;;10.57;;
18818;SDS011;9537;45.594;9.294;2023-04-08T05:55:22;19.97;;;10.93;;
18818;SDS011;9537;45.594;9.294;2023-04-08T05:56:23;15.10;;;9.90;;
18818;SDS011;9537;45.594;9.294;2023-04-08T05:57:25;15.90;;;11.23;;
18818;SDS011;9537;45.594;9.294;2023-04-08T05:58:26;19.47;;;11.37;;
18818;SDS011;9537;45.594;9.294;2023-04-08T05:59:28;19.23;;;11.23;;
18818;SDS011;9537;45.594;9.294;2023-04-08T06:00:29;15.23;;;10.40;;
18818;SDS011;9537;45.594;9.294;2023-04-08T06:01:32;17.50;;;12.97;;
18818;SDS011;9537;45.594;9.294;2023-04-08T06:02:34;15.83;;;10.23;;
18818;SDS011;9537;45.594;9.294;2023-04-08T06:03:36;18.80;;;12.20;;
18818;SDS011;9537;45.594;9.294;2023-04-08T06:04:38;16.57;;;11.60;;
18818;SDS011;9537;45.594;9.294;2023-04-08T06:05:40;17.87;;;11.33;;
18818;SDS011;9537;45.594;9.294;2023-04-08T06:06:41;19.27;;;11.53;;
18818;SDS011;9537;45.594;9.294;2023-04-08T06:07:43;18.33;;;10.80;;
18818;SDS011;9537;45.594;9.294;2023-04-08T06:08:45;14.63;;;10.17;;
18818;SDS011;9537;45.594;9.294;2023-04-08T06:09:47;16.07;;;10.90;;
18818;SDS011;9537;45.594;9.294;2023-04-08T06:10:48;16.23;;;11.03;;